createdAt,value
2022-12-31T00:01:44.067Z,92.25
2022-12-31T00:05:57.351Z,92.49
2022-12-31T00:09:56.364Z,92.67
2022-12-31T00:13:56.568Z,92.37
2022-12-31T00:17:56.502Z,92.45
2022-12-31T00:21:56.042Z,92.33
2022-12-31T00:25:55.159Z,91.97
2022-12-31T00:30:00.926Z,91.48
2022-12-31T00:33:32.213Z,90.96
2022-12-31T00:37:32.159Z,90.67
2022-12-31T00:41:45.829Z,89.99
2022-12-31T00:49:58.362Z,89.77
2022-12-31T00:54:11.421Z,89.88
2022-12-31T00:58:10.675Z,89.87
2022-12-31T01:02:10.299Z,90.10
2022-12-31T01:06:09.734Z,89.95
2022-12-31T01:10:10.451Z,88.66
2022-12-31T01:14:12.177Z,87.15
2022-12-31T01:18:12.748Z,86.24
2022-12-31T01:22:12.770Z,85.64
2022-12-31T01:26:13.877Z,84.90
2022-12-31T01:30:13.333Z,84.49
2022-12-31T01:34:13.234Z,84.20
2022-12-31T01:38:12.539Z,83.82
2022-12-31T01:42:12.418Z,83.48
2022-12-31T01:46:14.164Z,83.19
2022-12-31T01:50:21.044Z,83.18
2022-12-31T01:54:22.594Z,83.08
2022-12-31T01:58:30.235Z,82.73
2022-12-31T02:02:29.833Z,82.72
2022-12-31T02:06:33.882Z,82.79
2022-12-31T02:10:33.197Z,82.87
2022-12-31T02:14:34.088Z,82.54
2022-12-31T02:18:45.253Z,82.41
2022-12-31T02:23:04.966Z,82.39
2022-12-31T02:27:07.969Z,82.66
2022-12-31T02:31:27.522Z,82.49
2022-12-31T02:35:46.239Z,82.40
2022-12-31T02:39:45.999Z,82.42
2022-12-31T02:43:48.152Z,82.95
2022-12-31T02:47:58.676Z,83.14
2022-12-31T02:52:17.852Z,83.63
2022-12-31T02:56:17.457Z,83.42
2022-12-31T03:00:36.051Z,83.77
2022-12-31T03:04:36.511Z,83.83
2022-12-31T03:08:56.351Z,83.98
2022-12-31T03:12:56.046Z,84.48
2022-12-31T03:16:55.364Z,85.00
2022-12-31T03:21:13.453Z,85.34
2022-12-31T03:25:36.641Z,85.42
2022-12-31T03:29:36.056Z,85.36
2022-12-31T03:33:39.522Z,85.58
2022-12-31T03:37:39.999Z,85.49
2022-12-31T03:41:39.356Z,85.90
2022-12-31T03:45:38.584Z,86.12
2022-12-31T03:49:38.329Z,86.89
2022-12-31T03:53:37.637Z,87.64
2022-12-31T03:57:36.834Z,87.73
2022-12-31T04:01:36.244Z,89.24
2022-12-31T04:05:35.693Z,89.47
2022-12-31T04:09:34.962Z,90.00
2022-12-31T04:13:34.016Z,90.50
2022-12-31T04:17:48.371Z,90.72
2022-12-31T04:21:48.484Z,91.39
2022-12-31T04:25:48.143Z,91.44
2022-12-31T04:29:47.338Z,91.65
2022-12-31T04:33:49.262Z,92.23
2022-12-31T04:37:24.837Z,92.59
2022-12-31T04:41:27.156Z,92.54
2022-12-31T04:45:26.734Z,92.99
2022-12-31T04:49:27.173Z,93.08
2022-12-31T04:53:26.552Z,93.07
2022-12-31T04:57:26.092Z,93.25
2022-12-31T05:01:25.603Z,93.44
2022-12-31T05:05:24.912Z,93.89
2022-12-31T05:09:27.621Z,94.05
2022-12-31T05:13:32.905Z,93.97
2022-12-31T05:17:32.919Z,94.33
2022-12-31T05:21:32.250Z,94.28
2022-12-31T05:25:31.300Z,94.21
2022-12-31T05:29:30.677Z,93.94
2022-12-31T05:33:30.480Z,94.38
2022-12-31T05:37:30.308Z,94.47
2022-12-31T05:41:29.729Z,95.07
2022-12-31T05:45:31.177Z,95.33
2022-12-31T05:49:31.017Z,95.02
2022-12-31T05:53:30.755Z,95.09
2022-12-31T05:57:30.962Z,95.89
2022-12-31T06:01:30.524Z,95.76
2022-12-31T06:05:30.425Z,95.47
2022-12-31T06:09:29.961Z,95.55
2022-12-31T06:13:29.879Z,95.71
2022-12-31T06:17:30.412Z,95.44
2022-12-31T06:21:30.338Z,95.93
2022-12-31T06:25:49.739Z,95.88
2022-12-31T06:29:07.559Z,96.01
2022-12-31T06:33:06.627Z,96.03
2022-12-31T06:37:06.021Z,96.28
2022-12-31T06:41:06.092Z,96.03
2022-12-31T06:45:06.355Z,96.02
2022-12-31T06:49:06.622Z,95.97
2022-12-31T06:53:08.631Z,95.90
2022-12-31T06:56:45.916Z,95.64
2022-12-31T07:00:54.510Z,95.57
2022-12-31T07:05:28.251Z,95.71
2022-12-31T07:09:11.965Z,95.53
2022-12-31T07:13:20.744Z,95.78
2022-12-31T07:17:32.086Z,95.56
2022-12-31T07:21:39.728Z,95.75
2022-12-31T07:25:43.586Z,95.56
2022-12-31T07:29:52.280Z,95.78
2022-12-31T07:34:14.598Z,95.82
2022-12-31T07:38:16.854Z,95.85
2022-12-31T07:42:21.998Z,95.83
2022-12-31T07:46:25.362Z,96.02
2022-12-31T07:50:25.583Z,96.13
2022-12-31T07:54:25.849Z,96.31
2022-12-31T07:58:34.462Z,96.62
2022-12-31T08:02:52.784Z,96.52
2022-12-31T08:06:55.883Z,96.56
2022-12-31T08:10:59.604Z,96.27
2022-12-31T08:14:59.877Z,96.76
2022-12-31T08:19:30.819Z,96.87
2022-12-31T08:23:49.756Z,96.41
2022-12-31T08:27:57.375Z,96.35
2022-12-31T08:32:16.203Z,96.37
2022-12-31T08:36:16.348Z,96.42
2022-12-31T08:40:21.266Z,96.13
2022-12-31T08:44:33.031Z,95.85
2022-12-31T08:48:34.291Z,95.73
2022-12-31T08:52:20.834Z,95.70
2022-12-31T08:56:31.075Z,96.18
2022-12-31T09:00:31.924Z,96.17
2022-12-31T09:04:43.413Z,96.33
2022-12-31T09:08:42.982Z,95.95
2022-12-31T09:12:47.500Z,95.77
2022-12-31T09:17:03.403Z,95.74
2022-12-31T09:21:02.446Z,95.69
2022-12-31T09:25:01.912Z,95.31
2022-12-31T09:29:09.716Z,95.20
2022-12-31T09:33:12.896Z,94.82
2022-12-31T09:37:18.618Z,95.29
2022-12-31T09:41:37.393Z,95.19
2022-12-31T09:45:56.419Z,95.24
2022-12-31T09:50:18.260Z,95.13
2022-12-31T09:54:31.155Z,95.16
2022-12-31T09:58:50.137Z,95.20
2022-12-31T10:03:02.890Z,95.21
2022-12-31T10:07:02.995Z,94.81
2022-12-31T10:11:07.121Z,95.24
2022-12-31T10:15:25.698Z,95.10
2022-12-31T10:19:31.673Z,95.13
2022-12-31T10:23:50.515Z,95.81
2022-12-31T10:27:55.339Z,95.65
2022-12-31T10:32:00.185Z,95.62
2022-12-31T10:36:05.947Z,95.46
2022-12-31T10:40:24.574Z,95.26
2022-12-31T10:44:30.101Z,95.51
2022-12-31T10:48:42.887Z,95.71
2022-12-31T10:53:01.142Z,96.15
2022-12-31T10:57:01.342Z,96.52
2022-12-31T11:01:22.137Z,96.15
2022-12-31T11:05:40.889Z,95.91
2022-12-31T11:09:59.902Z,95.93
2022-12-31T11:14:18.466Z,96.35
2022-12-31T11:18:43.573Z,96.13
2022-12-31T11:22:46.195Z,97.76
2022-12-31T11:27:08.534Z,97.68
2022-12-31T11:31:14.504Z,97.78
2022-12-31T11:35:33.087Z,97.81
2022-12-31T11:39:45.332Z,97.55
2022-12-31T11:44:00.719Z,96.86
2022-12-31T11:51:48.422Z,97.44
2022-12-31T11:56:08.700Z,97.62
2022-12-31T12:00:14.499Z,97.00
2022-12-31T12:04:14.381Z,96.90
2022-12-31T12:08:14.151Z,96.62
2022-12-31T12:12:13.852Z,97.17
2022-12-31T12:16:13.792Z,96.98
2022-12-31T12:20:18.675Z,96.97
2022-12-31T12:24:22.612Z,96.98
2022-12-31T12:28:24.086Z,96.95
2022-12-31T12:32:25.229Z,96.62
2022-12-31T12:36:25.076Z,96.65
2022-12-31T12:40:31.425Z,96.40
2022-12-31T12:44:33.387Z,96.18
2022-12-31T12:48:41.134Z,95.92
2022-12-31T12:53:07.553Z,95.92
2022-12-31T13:00:44.198Z,95.95
2022-12-31T13:05:02.445Z,95.53
2022-12-31T13:09:08.185Z,95.98
2022-12-31T13:13:24.675Z,95.88
2022-12-31T13:17:31.069Z,95.91
2022-12-31T13:21:49.310Z,96.40
2022-12-31T13:25:54.991Z,96.09
2022-12-31T13:29:55.559Z,95.79
2022-12-31T13:34:13.795Z,96.22
2022-12-31T13:38:19.641Z,95.98
2022-12-31T13:42:29.872Z,96.16
2022-12-31T13:46:47.923Z,96.33
2022-12-31T13:50:57.940Z,96.61
2022-12-31T13:55:28.155Z,97.41
2022-12-31T13:58:53.365Z,97.79
2022-12-31T14:02:58.932Z,98.15
2022-12-31T14:07:21.668Z,98.29
2022-12-31T14:11:25.530Z,99.91
2022-12-31T14:15:39.070Z,98.22
2022-12-31T14:19:57.165Z,99.60
2022-12-31T14:24:07.066Z,99.76
2022-12-31T14:28:10.377Z,99.64
2022-12-31T14:32:20.548Z,99.68
2022-12-31T14:36:26.223Z,99.36
2022-12-31T14:40:26.051Z,99.64
2022-12-31T14:44:38.070Z,99.20
2022-12-31T14:48:56.984Z,99.70
2022-12-31T14:53:16.369Z,98.71
2022-12-31T14:57:24.127Z,98.49
2022-12-31T15:01:45.693Z,98.79
2022-12-31T15:05:10.609Z,99.11
2022-12-31T15:09:18.955Z,99.43
2022-12-31T15:13:26.330Z,99.49
2022-12-31T15:17:44.383Z,99.80
2022-12-31T15:21:54.104Z,100.00
2022-12-31T15:25:57.990Z,99.99
2022-12-31T15:30:01.368Z,100.00
2022-12-31T15:34:35.098Z,100.00
2022-12-31T15:38:37.314Z,100.00
2022-12-31T15:42:39.903Z,99.53
2022-12-31T15:46:42.443Z,99.50
2022-12-31T15:50:43.263Z,99.07
2022-12-31T15:55:04.407Z,99.46
2022-12-31T15:58:25.658Z,99.12
2022-12-31T16:02:33.164Z,98.56
2022-12-31T16:06:18.426Z,99.13
2022-12-31T16:09:48.483Z,99.44
2022-12-31T16:13:52.894Z,98.79
2022-12-31T16:17:30.787Z,98.68
2022-12-31T16:21:11.801Z,98.00
2022-12-31T16:25:19.540Z,98.89
2022-12-31T16:29:15.135Z,100.00
2022-12-31T16:32:47.161Z,99.83
2022-12-31T16:36:57.983Z,100.00
2022-12-31T16:41:01.864Z,100.00
2022-12-31T16:44:35.704Z,100.00
2022-12-31T16:48:37.076Z,100.00
2022-12-31T16:52:33.604Z,100.00
2022-12-31T16:55:54.866Z,100.00
2022-12-31T17:00:03.253Z,100.00
2022-12-31T17:04:06.903Z,100.00
2022-12-31T17:08:24.093Z,100.00
2022-12-31T17:12:25.163Z,100.00
2022-12-31T17:16:40.377Z,100.00
2022-12-31T17:21:05.366Z,100.00
2022-12-31T17:24:17.248Z,99.98
2022-12-31T17:32:37.640Z,99.20
2022-12-31T17:36:56.445Z,99.91
2022-12-31T17:40:52.124Z,100.00
2022-12-31T17:44:55.108Z,99.81
2022-12-31T17:48:58.876Z,99.43
2022-12-31T17:53:11.289Z,100.00
2022-12-31T17:57:21.805Z,100.00
2022-12-31T18:00:52.468Z,99.23
2022-12-31T18:04:53.340Z,98.99
2022-12-31T18:08:54.903Z,98.03
2022-12-31T18:12:32.778Z,96.98
2022-12-31T18:16:19.136Z,97.80
2022-12-31T18:20:25.581Z,95.18
2022-12-31T18:24:24.326Z,95.45
2022-12-31T18:27:36.085Z,95.22
2022-12-31T18:31:36.330Z,96.11
2022-12-31T18:39:56.735Z,94.75
2022-12-31T18:43:56.707Z,94.26
2022-12-31T18:48:10.460Z,95.69
2022-12-31T18:52:13.276Z,94.60
2022-12-31T18:56:15.086Z,93.97
2022-12-31T19:00:15.551Z,94.57
2022-12-31T19:04:27.060Z,95.74
2022-12-31T19:08:27.654Z,94.50
2022-12-31T19:12:27.192Z,95.77
2022-12-31T19:16:29.755Z,96.65
2022-12-31T19:20:43.174Z,94.88
2022-12-31T19:24:42.894Z,93.83
2022-12-31T19:29:03.489Z,93.47
2022-12-31T19:32:19.959Z,92.89
2022-12-31T19:36:20.784Z,93.10
2022-12-31T19:40:34.191Z,93.90
2022-12-31T19:44:34.520Z,91.72
2022-12-31T19:48:35.716Z,94.70
2022-12-31T19:52:57.376Z,93.85
2022-12-31T19:56:56.825Z,93.95
2022-12-31T20:01:02.283Z,96.34
2022-12-31T20:05:04.573Z,97.24
2022-12-31T20:09:06.040Z,93.08
2022-12-31T20:12:28.565Z,94.71
2022-12-31T20:15:57.398Z,94.56
2022-12-31T20:19:57.484Z,94.18
2022-12-31T20:23:56.857Z,94.45
2022-12-31T20:27:56.574Z,93.47
2022-12-31T20:32:11.887Z,94.25
2022-12-31T20:35:47.933Z,94.06
2022-12-31T20:39:51.084Z,93.53
2022-12-31T20:44:22.459Z,94.81
2022-12-31T20:47:57.221Z,95.50
2022-12-31T20:56:45.567Z,95.38
2022-12-31T21:05:55.721Z,96.25
2022-12-31T21:14:17.445Z,99.03
2022-12-31T21:18:23.044Z,98.44
2022-12-31T21:21:54.697Z,97.12
2022-12-31T21:25:56.846Z,98.03
2022-12-31T21:29:55.712Z,97.24
2022-12-31T21:33:12.559Z,97.75
2022-12-31T21:36:49.174Z,98.53
2022-12-31T21:40:24.945Z,97.63
2022-12-31T21:44:26.063Z,97.19
2022-12-31T21:48:25.679Z,97.87
2022-12-31T21:52:30.649Z,98.61
2022-12-31T21:56:30.107Z,97.28
2022-12-31T22:01:01.934Z,96.77
2022-12-31T22:05:03.002Z,97.83
2022-12-31T22:09:04.225Z,97.05
2022-12-31T22:13:03.552Z,96.68
2022-12-31T22:17:03.606Z,96.47
2022-12-31T22:21:04.496Z,96.26
2022-12-31T22:25:04.523Z,96.08
2022-12-31T22:29:19.334Z,96.24
2022-12-31T22:33:19.114Z,96.44
2022-12-31T22:37:54.533Z,98.05
2022-12-31T22:41:40.211Z,98.92
2022-12-31T22:45:53.688Z,99.66
2022-12-31T22:50:07.486Z,99.81
2022-12-31T22:54:07.687Z,99.37
2022-12-31T22:58:07.128Z,99.65
2022-12-31T23:02:06.482Z,99.26
2022-12-31T23:06:06.010Z,99.33
2022-12-31T23:10:25.137Z,99.78
2022-12-31T23:14:01.888Z,99.76
2022-12-31T23:18:19.680Z,99.92
2022-12-31T23:22:48.462Z,99.81
2022-12-31T23:26:48.687Z,99.58
2022-12-31T23:31:06.076Z,98.46
2022-12-31T23:35:09.885Z,98.66
2022-12-31T23:39:09.846Z,98.64
2022-12-31T23:43:23.931Z,99.21
2022-12-31T23:47:42.397Z,100.00
2022-12-31T23:51:43.042Z,100.00
2022-12-31T23:55:43.782Z,100.00
2022-12-31T23:59:44.337Z,100.00
